Observation data for O'Donnell on 03/12/2018      Previous  Date  Next       Current Mesonet Observations  Soil Data  Daily Summary Page  Observations in Plain Language
KOES 120500Z 00005KT 03/M16 A3035 RMK A01 T00251160  RH  024%=      5-min Rain = 0
KOES 120505Z 00005KT 03/M16 A3035 RMK A01 T00281160  RH  023%=      5-min Rain = 0
KOES 120510Z 01006KT 03/M16 A3035 RMK A01 T00301160  RH  023%=      5-min Rain = 0
KOES 120515Z 01006KT 03/M16 A3035 RMK A01 T00311160  RH  023%=      5-min Rain = 0
KOES 120520Z 01007KT 03/M16 A3035 RMK A01 T00311156  RH  024%=      5-min Rain = 0
KOES 120525Z 02007KT 03/M16 A3035 RMK A01 T00311155  RH  024%=      5-min Rain = 0
KOES 120530Z 02007KT 04/M16 A3035 RMK A01 T00351158  RH  023%=      5-min Rain = 0
KOES 120535Z 03007KT 04/M16 A3035 RMK A01 T00401161  RH  021%=      5-min Rain = 0
KOES 120540Z 03006KT 04/M16 A3035 RMK A01 T00431163  RH  020%=      5-min Rain = 0
KOES 120545Z 03006KT 04/M16 A3035 RMK A01 T00421162  RH  021%=      5-min Rain = 0
KOES 120550Z 04008KT 04/M16 A3035 RMK A01 T00441161  RH  021%=      5-min Rain = 0
KOES 120555Z 05007KT 05/M16 A3035 RMK A01 T00451159  RH  021%=      5-min Rain = 0
KOES 120600Z 05007KT 05/M15 A3035 RMK A01 T00481153  RH  021%=      5-min Rain = 0
KOES 120605Z 05006KT 05/M15 A3035 RMK A01 T00491151  RH  022%=      5-min Rain = 0
KOES 120610Z 05006KT 05/M15 A3035 RMK A01 T00471151  RH  022%=      5-min Rain = 0
KOES 120615Z 05006KT 05/M15 A3035 RMK A01 T00451152  RH  022%=      5-min Rain = 0
KOES 120620Z 04007KT 04/M15 A3035 RMK A01 T00431153  RH  022%=      5-min Rain = 0
KOES 120625Z 04007KT 04/M15 A3035 RMK A01 T00411152  RH  023%=      5-min Rain = 0
KOES 120630Z 05008KT 04/M15 A3035 RMK A01 T00401150  RH  023%=      5-min Rain = 0
KOES 120635Z 04007KT 04/M15 A3034 RMK A01 T00401149  RH  024%=      5-min Rain = 0
KOES 120640Z 04006KT 04/M15 A3035 RMK A01 T00401147  RH  024%=      5-min Rain = 0
KOES 120645Z 05006KT 04/M15 A3035 RMK A01 T00391147  RH  024%=      5-min Rain = 0
KOES 120650Z 05007KT 04/M14 A3035 RMK A01 T00391144  RH  025%=      5-min Rain = 0
KOES 120655Z 04007KT 04/M15 A3035 RMK A01 T00401145  RH  024%=      5-min Rain = 0
KOES 120700Z 04007KT 04/M14 A3035 RMK A01 T00391144  RH  025%=      5-min Rain = 0
KOES 120705Z 04007KT 04/M14 A3035 RMK A01 T00381144  RH  025%=      5-min Rain = 0
KOES 120710Z 04006KT 04/M15 A3035 RMK A01 T00361145  RH  025%=      5-min Rain = 0
KOES 120715Z 04007KT 03/M15 A3035 RMK A01 T00331147  RH  025%=      5-min Rain = 0
KOES 120720Z 04007KT 03/M15 A3035 RMK A01 T00311147  RH  026%=      5-min Rain = 0
KOES 120725Z 04006KT 03/M15 A3035 RMK A01 T00301147  RH  026%=      5-min Rain = 0
KOES 120730Z 04006KT 03/M15 A3035 RMK A01 T00281147  RH  026%=      5-min Rain = 0
KOES 120735Z 04006KT 03/M15 A3035 RMK A01 T00261148  RH  026%=      5-min Rain = 0
KOES 120740Z 03006KT 02/M15 A3035 RMK A01 T00231149  RH  027%=      5-min Rain = 0
KOES 120745Z 03007KT 02/M15 A3035 RMK A01 T00211150  RH  027%=      5-min Rain = 0
KOES 120750Z 03007KT 02/M15 A3035 RMK A01 T00211149  RH  027%=      5-min Rain = 0
KOES 120755Z 03007KT 02/M15 A3035 RMK A01 T00231148  RH  027%=      5-min Rain = 0
KOES 120800Z 03007KT 02/M15 A3035 RMK A01 T00241149  RH  026%=      5-min Rain = 0
KOES 120805Z 03006KT 02/M15 A3035 RMK A01 T00231148  RH  027%=      5-min Rain = 0
KOES 120810Z 03006KT 02/M14 A3035 RMK A01 T00231144  RH  028%=      5-min Rain = 0
KOES 120815Z 03006KT 02/M14 A3035 RMK A01 T00241142  RH  028%=      5-min Rain = 0
KOES 120820Z 03006KT 03/M14 A3035 RMK A01 T00251140  RH  028%=      5-min Rain = 0
KOES 120825Z 03005KT 03/M14 A3035 RMK A01 T00261138  RH  029%=      5-min Rain = 0
KOES 120830Z 03004KT 03/M14 A3035 RMK A01 T00261137  RH  029%=      5-min Rain = 0
KOES 120835Z 02005KT 03/M14 A3034 RMK A01 T00261136  RH  029%=      5-min Rain = 0
KOES 120840Z 03004KT 03/M14 A3034 RMK A01 T00261136  RH  029%=      5-min Rain = 0
KOES 120845Z 03004KT 03/M14 A3034 RMK A01 T00271135  RH  029%=      5-min Rain = 0
KOES 120850Z 03005KT 03/M13 A3034 RMK A01 T00271134  RH  029%=      5-min Rain = 0
KOES 120855Z 03006KT 03/M13 A3034 RMK A01 T00271133  RH  029%=      5-min Rain = 0
KOES 120900Z 03006KT 03/M13 A3034 RMK A01 T00271131  RH  030%=      5-min Rain = 0
KOES 120905Z 03005KT 03/M13 A3034 RMK A01 T00281130  RH  030%=      5-min Rain = 0
KOES 120910Z 02005KT 03/M13 A3034 RMK A01 T00281129  RH  030%=      5-min Rain = 0
KOES 120915Z 02005KT 03/M13 A3034 RMK A01 T00271128  RH  031%=      5-min Rain = 0
KOES 120920Z 02005KT 03/M13 A3034 RMK A01 T00281126  RH  031%=      5-min Rain = 0
KOES 120925Z 02005KT 03/M13 A3034 RMK A01 T00271126  RH  031%=      5-min Rain = 0
KOES 120930Z 02006KT 03/M13 A3034 RMK A01 T00271125  RH  031%=      5-min Rain = 0
KOES 120935Z 03006KT 03/M12 A3034 RMK A01 T00271124  RH  032%=      5-min Rain = 0
KOES 120940Z 03005KT 03/M12 A3034 RMK A01 T00261124  RH  032%=      5-min Rain = 0
KOES 120945Z 03005KT 03/M12 A3034 RMK A01 T00261123  RH  032%=      5-min Rain = 0
KOES 120950Z 02004KT 03/M12 A3034 RMK A01 T00251122  RH  033%=      5-min Rain = 0
KOES 120955Z 03004KT 03/M12 A3034 RMK A01 T00251119  RH  033%=      5-min Rain = 0
KOES 121000Z 04004KT 03/M12 A3034 RMK A01 T00251119  RH  034%=      5-min Rain = 0
KOES 121005Z 04005KT 03/M12 A3034 RMK A01 T00251119  RH  034%=      5-min Rain = 0
KOES 121010Z 04005KT 03/M12 A3034 RMK A01 T00251118  RH  034%=      5-min Rain = 0
KOES 121015Z 04005KT 03/M12 A3034 RMK A01 T00251118  RH  034%=      5-min Rain = 0
KOES 121020Z 04005KT 03/M12 A3034 RMK A01 T00251115  RH  034%=      5-min Rain = 0
KOES 121025Z 05005KT 03/M11 A3034 RMK A01 T00261112  RH  035%=      5-min Rain = 0
KOES 121030Z 05005KT 03/M11 A3034 RMK A01 T00281109  RH  035%=      5-min Rain = 0
KOES 121035Z 05005KT 03/M11 A3034 RMK A01 T00291108  RH  036%=      5-min Rain = 0
KOES 121040Z 05005KT 03/M11 A3034 RMK A01 T00301106  RH  036%=      5-min Rain = 0
KOES 121045Z 05005KT 03/M10 A3034 RMK A01 T00311103  RH  037%=      5-min Rain = 0
KOES 121050Z 05004KT 03/M10 A3035 RMK A01 T00321101  RH  037%=      5-min Rain = 0
KOES 121055Z 04004KT 03/M10 A3035 RMK A01 T00321101  RH  037%=      5-min Rain = 0
KOES 121100Z 04004KT 03/M10 A3035 RMK A01 T00321103  RH  036%=      5-min Rain = 0
KOES 121105Z 05005KT 03/M10 A3035 RMK A01 T00311100  RH  037%=      5-min Rain = 0
KOES 121110Z 06006KT 03/M10 A3034 RMK A01 T00331095  RH  038%=      5-min Rain = 0
KOES 121115Z 06004KT 03/M09 A3035 RMK A01 T00341094  RH  038%=      5-min Rain = 0
KOES 121120Z 06004KT 03/M09 A3035 RMK A01 T00341094  RH  038%=      5-min Rain = 0
KOES 121125Z 06004KT 03/M10 A3035 RMK A01 T00331096  RH  038%=      5-min Rain = 0
KOES 121130Z 05004KT 03/M10 A3035 RMK A01 T00331096  RH  038%=      5-min Rain = 0
KOES 121135Z 04004KT 03/M10 A3036 RMK A01 T00321097  RH  038%=      5-min Rain = 0
KOES 121140Z 03004KT 03/M10 A3036 RMK A01 T00321100  RH  037%=      5-min Rain = 0
KOES 121145Z 03004KT 03/M10 A3036 RMK A01 T00311100  RH  038%=      5-min Rain = 0
KOES 121150Z 03004KT 03/M10 A3036 RMK A01 T00301100  RH  038%=      5-min Rain = 0
KOES 121155Z 03004KT 03/M10 A3036 RMK A01 T00291100  RH  038%=      5-min Rain = 0
KOES 121200Z 04005KT 03/M10 A3036 RMK A01 T00281101  RH  038%=      5-min Rain = 0
KOES 121205Z 04004KT 03/M10 A3036 RMK A01 T00271100  RH  039%=      5-min Rain = 0
KOES 121210Z 05004KT 03/M10 A3036 RMK A01 T00271100  RH  039%=      5-min Rain = 0
KOES 121215Z 05004KT 03/M10 A3036 RMK A01 T00261100  RH  039%=      5-min Rain = 0
KOES 121220Z 04005KT 03/M10 A3036 RMK A01 T00251100  RH  039%=      5-min Rain = 0
KOES 121225Z 04005KT 02/M10 A3036 RMK A01 T00241101  RH  039%=      5-min Rain = 0
KOES 121230Z 04005KT 02/M10 A3036 RMK A01 T00231102  RH  039%=      5-min Rain = 0
KOES 121235Z 02005KT 02/M10 A3037 RMK A01 T00221102  RH  039%=      5-min Rain = 0
KOES 121240Z 03004KT 02/M10 A3037 RMK A01 T00211102  RH  040%=      5-min Rain = 0
KOES 121245Z 02004KT 02/M10 A3037 RMK A01 T00201102  RH  040%=      5-min Rain = 0
KOES 121250Z 02004KT 02/M10 A3037 RMK A01 T00181103  RH  040%=      5-min Rain = 0
KOES 121255Z 02004KT 02/M10 A3037 RMK A01 T00161101  RH  041%=      5-min Rain = 0
KOES 121300Z 02004KT 02/M10 A3038 RMK A01 T00161099  RH  042%=      5-min Rain = 0
KOES 121305Z 02005KT 02/M10 A3037 RMK A01 T00161099  RH  042%=      5-min Rain = 0
KOES 121310Z 03004KT 02/M10 A3038 RMK A01 T00161098  RH  042%=      5-min Rain = 0
KOES 121315Z 03003KT 02/M10 A3038 RMK A01 T00181097  RH  042%=      5-min Rain = 0
KOES 121320Z 02003KT 02/M10 A3038 RMK A01 T00181098  RH  042%=      5-min Rain = 0
KOES 121325Z 02003KT 02/M10 A3038 RMK A01 T00191097  RH  042%=      5-min Rain = 0
KOES 121330Z 01004KT 02/M09 A3038 RMK A01 T00221093  RH  042%=      5-min Rain = 0
KOES 121335Z 02004KT 03/M09 A3038 RMK A01 T00281088  RH  042%=      5-min Rain = 0
KOES 121340Z 03004KT 03/M09 A3038 RMK A01 T00311085  RH  042%=      5-min Rain = 0
KOES 121345Z 04004KT 03/M08 A3038 RMK A01 T00331083  RH  043%=      5-min Rain = 0
KOES 121350Z 04004KT 03/M08 A3038 RMK A01 T00331081  RH  043%=      5-min Rain = 0
KOES 121355Z 03003KT 03/M08 A3038 RMK A01 T00331080  RH  043%=      5-min Rain = 0
KOES 121400Z 04003KT 03/M08 A3038 RMK A01 T00341078  RH  044%=      5-min Rain = 0
KOES 121405Z 04004KT 04/M07 A3038 RMK A01 T00361073  RH  045%=      5-min Rain = 0
KOES 121410Z 05004KT 04/M07 A3038 RMK A01 T00371072  RH  045%=      5-min Rain = 0
KOES 121415Z 05004KT 04/M07 A3038 RMK A01 T00371071  RH  045%=      5-min Rain = 0
KOES 121420Z 05005KT 04/M07 A3039 RMK A01 T00371069  RH  046%=      5-min Rain = 0
KOES 121425Z 06004KT 04/M07 A3039 RMK A01 T00371068  RH  046%=      5-min Rain = 0
KOES 121430Z 07004KT 04/M07 A3039 RMK A01 T00381067  RH  046%=      5-min Rain = 0
KOES 121435Z 07004KT 04/M07 A3039 RMK A01 T00381066  RH  046%=      5-min Rain = 0
KOES 121440Z 07004KT 04/M07 A3039 RMK A01 T00381066  RH  046%=      5-min Rain = 0
KOES 121445Z 09003KT 04/M07 A3039 RMK A01 T00381067  RH  046%=      5-min Rain = 0
KOES 121450Z 08002KT 04/M07 A3039 RMK A01 T00381068  RH  046%=      5-min Rain = 0
KOES 121455Z 06002KT 04/M07 A304 RMK A01 T00391070  RH  045%=      5-min Rain = 0
KOES 121500Z 06002KT 04/M07 A304 RMK A01 T00391070  RH  045%=      5-min Rain = 0
KOES 121505Z 08002KT 04/M07 A304 RMK A01 T00391068  RH  045%=      5-min Rain = 0
KOES 121510Z 08002KT 04/M07 A304 RMK A01 T00411068  RH  045%=      5-min Rain = 0
KOES 121515Z 07001KT 04/M07 A304 RMK A01 T00411068  RH  045%=      5-min Rain = 0
KOES 121520Z 09001KT 04/M07 A304 RMK A01 T00431066  RH  045%=      5-min Rain = 0
KOES 121525Z 05000KT 05/M07 A304 RMK A01 T00451066  RH  044%=      5-min Rain = 0
KOES 121530Z 29000KT 05/M07 A304 RMK A01 T00461065  RH  044%=      5-min Rain = 0
KOES 121535Z 27000KT 05/M06 A3041 RMK A01 T00481064  RH  044%=      5-min Rain = 0
KOES 121540Z 12000KT 05/M06 A3041 RMK A01 T00491063  RH  044%=      5-min Rain = 0
KOES 121545Z 20000KT 05/M06 A3041 RMK A01 T00511062  RH  044%=      5-min Rain = 0
KOES 121550Z 07000KT 05/M06 A3041 RMK A01 T00531060  RH  044%=      5-min Rain = 0
KOES 121555Z 07000KT 05/M06 A3041 RMK A01 T00541058  RH  044%=      5-min Rain = 0
KOES 121600Z 06000KT 06/M06 A3041 RMK A01 T00551058  RH  044%=      5-min Rain = 0
KOES 121605Z 34001KT 06/M06 A3041 RMK A01 T00571057  RH  044%=      5-min Rain = 0
KOES 121610Z 34001KT 06/M06 A3041 RMK A01 T00571057  RH  044%=      5-min Rain = 0
KOES 121615Z 04002KT 06/M06 A3041 RMK A01 T00581056  RH  044%=      5-min Rain = 0
KOES 121620Z 07001KT 06/M05 A3041 RMK A01 T00591054  RH  044%=      5-min Rain = 0
KOES 121625Z 06002KT 06/M05 A3041 RMK A01 T00611053  RH  044%=      5-min Rain = 0
KOES 121630Z 06002KT 06/M05 A3041 RMK A01 T00611053  RH  044%=      5-min Rain = 0
KOES 121635Z 03001KT 06/M05 A3041 RMK A01 T00621053  RH  044%=      5-min Rain = 0
KOES 121640Z 35001KT 06/M05 A3041 RMK A01 T00631053  RH  043%=      5-min Rain = 0
KOES 121645Z 07002KT 07/M05 A304 RMK A01 T00651053  RH  043%=      5-min Rain = 0
KOES 121650Z 11003KT 07/M05 A304 RMK A01 T00651052  RH  043%=      5-min Rain = 0
KOES 121655Z 13003KT 07/M05 A304 RMK A01 T00671052  RH  042%=      5-min Rain = 0
KOES 121700Z 09003KT 07/M05 A304 RMK A01 T00681052  RH  042%=      5-min Rain = 0
KOES 121705Z 12002KT 07/M05 A304 RMK A01 T00691053  RH  042%=      5-min Rain = 0
KOES 121710Z 12003KT 07/M05 A304 RMK A01 T00711053  RH  041%=      5-min Rain = 0
KOES 121715Z 11004KT 07/M05 A304 RMK A01 T00721052  RH  041%=      5-min Rain = 0
KOES 121720Z 12003KT 07/M05 A3039 RMK A01 T00741052  RH  040%=      5-min Rain = 0
KOES 121725Z 13002KT 08/M05 A3039 RMK A01 T00761052  RH  040%=      5-min Rain = 0
KOES 121730Z 10004KT 08/M05 A3039 RMK A01 T00771052  RH  040%=      5-min Rain = 0
KOES 121735Z 08003KT 08/M05 A3039 RMK A01 T00771053  RH  039%=      5-min Rain = 0
KOES 121740Z 10003KT 08/M05 A3039 RMK A01 T00791053  RH  039%=      5-min Rain = 0
KOES 121745Z 12003KT 08/M05 A3039 RMK A01 T00821053  RH  038%=      5-min Rain = 0
KOES 121750Z 10005KT 08/M06 A3038 RMK A01 T00831056  RH  037%=      5-min Rain = 0
KOES 121755Z 14005KT 09/M06 A3038 RMK A01 T00861056  RH  036%=      5-min Rain = 0
KOES 121800Z 11003KT 09/M06 A3038 RMK A01 T00931058  RH  034%=      5-min Rain = 0
KOES 121805Z 08004G9KT 09/M06 A3038 RMK A01 T00931059  RH  034%=      5-min Rain = 0
KOES 121810Z 10002KT 10/M06 A3037 RMK A01 T00961058  RH  033%=      5-min Rain = 0
KOES 121815Z 06005KT 10/M06 A3037 RMK A01 T01011058  RH  032%=      5-min Rain = 0
KOES 121820Z 10006KT 10/M06 A3037 RMK A01 T00991059  RH  032%=      5-min Rain = 0
KOES 121825Z 14005KT 10/M06 A3036 RMK A01 T00961064  RH  032%=      5-min Rain = 0
KOES 121830Z 14004KT 10/M07 A3036 RMK A01 T00961065  RH  031%=      5-min Rain = 0
KOES 121835Z 14004KT 10/M06 A3036 RMK A01 T01021064  RH  031%=      5-min Rain = 0
KOES 121840Z 11003G8KT 10/M06 A3036 RMK A01 T01011060  RH  032%=      5-min Rain = 0
KOES 121845Z 14004G9KT 11/M06 A3035 RMK A01 T01061061  RH  031%=      5-min Rain = 0
KOES 121850Z 11004G9KT 11/M06 A3035 RMK A01 T01051062  RH  030%=      5-min Rain = 0
KOES 121855Z 07003KT 11/M06 A3035 RMK A01 T01051064  RH  030%=      5-min Rain = 0
KOES 121900Z 11005KT 11/M07 A3035 RMK A01 T01061065  RH  029%=      5-min Rain = 0
KOES 121905Z 15003KT 11/M07 A3034 RMK A01 T01081066  RH  029%=      5-min Rain = 0
KOES 121910Z 30002KT 11/M07 A3034 RMK A01 T01141066  RH  028%=      5-min Rain = 0
KOES 121915Z 16004KT 12/M07 A3034 RMK A01 T01161065  RH  028%=      5-min Rain = 0
KOES 121920Z 17005KT 11/M06 A3033 RMK A01 T01141064  RH  028%=      5-min Rain = 0
KOES 121925Z 23003KT 11/M07 A3033 RMK A01 T01141065  RH  028%=      5-min Rain = 0
KOES 121930Z 03003KT 12/M07 A3033 RMK A01 T01161065  RH  028%=      5-min Rain = 0
KOES 121935Z 16004G9KT 12/M07 A3032 RMK A01 T01171065  RH  027%=      5-min Rain = 0
KOES 121940Z 14006KT 12/M07 A3032 RMK A01 T01231066  RH  026%=      5-min Rain = 0
KOES 121945Z 18002KT 12/M07 A3032 RMK A01 T01201068  RH  026%=      5-min Rain = 0
KOES 121950Z 14002KT 12/M07 A3031 RMK A01 T01211068  RH  026%=      5-min Rain = 0
KOES 121955Z 11003G9KT 13/M07 A3031 RMK A01 T01251067  RH  026%=      5-min Rain = 0
KOES 122000Z 11006KT 12/M07 A3031 RMK A01 T01191069  RH  026%=      5-min Rain = 0
KOES 122005Z 12005KT 12/M07 A3031 RMK A01 T01171071  RH  026%=      5-min Rain = 0
KOES 122010Z 05001KT 12/M07 A303 RMK A01 T01231070  RH  025%=      5-min Rain = 0
KOES 122015Z 17005KT 13/M07 A303 RMK A01 T01291072  RH  024%=      5-min Rain = 0
KOES 122020Z 20005G11KT 13/M08 A303 RMK A01 T01311077  RH  023%=      5-min Rain = 0
KOES 122025Z 21003KT 13/M08 A303 RMK A01 T01271079  RH  023%=      5-min Rain = 0
KOES 122030Z 13002KT 13/M08 A3029 RMK A01 T01271076  RH  024%=      5-min Rain = 0
KOES 122035Z 11002KT 13/M08 A3029 RMK A01 T01301078  RH  023%=      5-min Rain = 0
KOES 122040Z 14004KT 13/M08 A3029 RMK A01 T01321078  RH  022%=      5-min Rain = 0
KOES 122045Z 26002KT 14/M08 A3028 RMK A01 T01371076  RH  022%=      5-min Rain = 0
KOES 122050Z 13003KT 13/M07 A3028 RMK A01 T01341073  RH  023%=      5-min Rain = 0
KOES 122055Z 05003KT 13/M07 A3028 RMK A01 T01331073  RH  023%=      5-min Rain = 0
KOES 122100Z 31003KT 13/M07 A3028 RMK A01 T01331072  RH  023%=      5-min Rain = 0
KOES 122105Z 21001G6KT 14/M07 A3027 RMK A01 T01361073  RH  023%=      5-min Rain = 0
KOES 122110Z 17004KT 14/M07 A3027 RMK A01 T01401073  RH  022%=      5-min Rain = 0
KOES 122115Z 21002KT 14/M07 A3027 RMK A01 T01401073  RH  022%=      5-min Rain = 0
KOES 122120Z 20004KT 14/M08 A3026 RMK A01 T01391075  RH  022%=      5-min Rain = 0
KOES 122125Z 14006KT 14/M08 A3026 RMK A01 T01391077  RH  022%=      5-min Rain = 0
KOES 122130Z 14004KT 14/M08 A3025 RMK A01 T01381079  RH  021%=      5-min Rain = 0
KOES 122135Z 14005KT 14/M08 A3025 RMK A01 T01381081  RH  021%=      5-min Rain = 0
KOES 122140Z 14005KT 14/M08 A3025 RMK A01 T01401083  RH  020%=      5-min Rain = 0
KOES 122145Z 12003KT 14/M09 A3025 RMK A01 T01391085  RH  020%=      5-min Rain = 0
KOES 122150Z 18002KT 14/M09 A3024 RMK A01 T01421085  RH  020%=      5-min Rain = 0
KOES 122155Z 12004KT 14/M08 A3024 RMK A01 T01431083  RH  020%=      5-min Rain = 0
KOES 122200Z 03002KT 14/M08 A3024 RMK A01 T01421083  RH  020%=      5-min Rain = 0
KOES 122205Z 02003KT 14/M09 A3023 RMK A01 T01431085  RH  020%=      5-min Rain = 0
KOES 122210Z 16004KT 14/M09 A3023 RMK A01 T01421090  RH  019%=      5-min Rain = 0
KOES 122215Z 17005KT 15/M09 A3023 RMK A01 T01461093  RH  018%=      5-min Rain = 0
KOES 122220Z 14005KT 14/M10 A3023 RMK A01 T01441098  RH  018%=      5-min Rain = 0
KOES 122225Z 17004KT 14/M10 A3022 RMK A01 T01411102  RH  018%=      5-min Rain = 0
KOES 122230Z 21004KT 14/M11 A3022 RMK A01 T01411111  RH  016%=      5-min Rain = 0
KOES 122235Z 22004KT 14/M10 A3022 RMK A01 T01431103  RH  017%=      5-min Rain = 0
KOES 122240Z 19006G11KT 14/M10 A3022 RMK A01 T01431098  RH  018%=      5-min Rain = 0
KOES 122245Z 18005KT 14/M10 A3022 RMK A01 T01421098  RH  018%=      5-min Rain = 0
KOES 122250Z 22004KT 14/M10 A3022 RMK A01 T01421099  RH  018%=      5-min Rain = 0
KOES 122255Z 20006KT 14/M10 A3021 RMK A01 T01431101  RH  017%=      5-min Rain = 0
KOES 122300Z 19006KT 14/M10 A3021 RMK A01 T01411103  RH  017%=      5-min Rain = 0
KOES 122305Z 19006G11KT 14/M10 A3021 RMK A01 T01421104  RH  017%=      5-min Rain = 0
KOES 122310Z 18006KT 14/M10 A3021 RMK A01 T01421100  RH  018%=      5-min Rain = 0
KOES 122315Z 20006KT 14/M10 A3021 RMK A01 T01431102  RH  017%=      5-min Rain = 0
KOES 122320Z 18005KT 14/M10 A3021 RMK A01 T01401103  RH  017%=      5-min Rain = 0
KOES 122325Z 18007G12KT 14/M10 A3021 RMK A01 T01401103  RH  017%=      5-min Rain = 0
KOES 122330Z 19007KT 14/M11 A3021 RMK A01 T01381105  RH  017%=      5-min Rain = 0
KOES 122335Z 19008KT 14/M10 A3021 RMK A01 T01371102  RH  018%=      5-min Rain = 0
KOES 122340Z 19005KT 14/M10 A3021 RMK A01 T01361102  RH  018%=      5-min Rain = 0
KOES 122345Z 17006KT 14/M10 A3021 RMK A01 T01371102  RH  018%=      5-min Rain = 0
KOES 122350Z 18005KT 14/M10 A3021 RMK A01 T01351103  RH  018%=      5-min Rain = 0
KOES 122355Z 16005KT 13/M10 A3021 RMK A01 T01331100  RH  019%=      5-min Rain = 0
KOES 130000Z 18005KT 13/M10 A3021 RMK A01 T01321101  RH  019%=      5-min Rain = 0
KOES 130005Z 16006KT 13/M10 A3021 RMK A01 T01331103  RH  018%=      5-min Rain = 0
KOES 130010Z 18005KT 13/M10 A3021 RMK A01 T01331103  RH  018%=      5-min Rain = 0
KOES 130015Z 18007KT 13/M10 A3021 RMK A01 T01311103  RH  019%=      5-min Rain = 0
KOES 130020Z 18006KT 13/M10 A3021 RMK A01 T01291103  RH  019%=      5-min Rain = 0
KOES 130025Z 17006KT 13/M10 A3021 RMK A01 T01281102  RH  019%=      5-min Rain = 0
KOES 130030Z 18006KT 13/M10 A3021 RMK A01 T01261103  RH  019%=      5-min Rain = 0
KOES 130035Z 17006KT 12/M10 A3021 RMK A01 T01241102  RH  019%=      5-min Rain = 0
KOES 130040Z 17006KT 12/M10 A3021 RMK A01 T01231101  RH  020%=      5-min Rain = 0
KOES 130045Z 16005KT 12/M10 A3021 RMK A01 T01221101  RH  020%=      5-min Rain = 0
KOES 130050Z 16006KT 12/M10 A3021 RMK A01 T01201101  RH  020%=      5-min Rain = 0
KOES 130055Z 16005KT 12/M10 A3022 RMK A01 T01181101  RH  020%=      5-min Rain = 0
KOES 130100Z 16005KT 12/M10 A3022 RMK A01 T01161102  RH  021%=      5-min Rain = 0
KOES 130105Z 16005KT 11/M10 A3022 RMK A01 T01131102  RH  021%=      5-min Rain = 0
KOES 130110Z 16005KT 11/M10 A3022 RMK A01 T01121102  RH  021%=      5-min Rain = 0
KOES 130115Z 17005KT 11/M10 A3022 RMK A01 T01101101  RH  022%=      5-min Rain = 0
KOES 130120Z 16005KT 11/M10 A3023 RMK A01 T01081100  RH  022%=      5-min Rain = 0
KOES 130125Z 16005KT 11/M10 A3023 RMK A01 T01071099  RH  022%=      5-min Rain = 0
KOES 130130Z 17006KT 11/M10 A3023 RMK A01 T01061098  RH  023%=      5-min Rain = 0
KOES 130135Z 16005KT 11/M10 A3023 RMK A01 T01051098  RH  023%=      5-min Rain = 0
KOES 130140Z 16006KT 10/M10 A3023 RMK A01 T01041098  RH  023%=      5-min Rain = 0
KOES 130145Z 16006KT 10/M10 A3023 RMK A01 T01031097  RH  023%=      5-min Rain = 0
KOES 130150Z 16005KT 10/M10 A3023 RMK A01 T01031097  RH  023%=      5-min Rain = 0
KOES 130155Z 16005KT 10/M10 A3023 RMK A01 T01021097  RH  023%=      5-min Rain = 0
KOES 130200Z 16005KT 10/M10 A3023 RMK A01 T01011098  RH  024%=      5-min Rain = 0
KOES 130205Z 16005KT 10/M10 A3023 RMK A01 T00991099  RH  024%=      5-min Rain = 0
KOES 130210Z 16005KT 10/M10 A3023 RMK A01 T00991099  RH  024%=      5-min Rain = 0
KOES 130215Z 16004KT 10/M10 A3023 RMK A01 T00981100  RH  024%=      5-min Rain = 0
KOES 130220Z 16004KT 10/M10 A3023 RMK A01 T00971099  RH  024%=      5-min Rain = 0
KOES 130225Z 15004KT 10/M10 A3023 RMK A01 T00961099  RH  024%=      5-min Rain = 0
KOES 130230Z 15004KT 09/M10 A3023 RMK A01 T00931099  RH  025%=      5-min Rain = 0
KOES 130235Z 15004KT 09/M10 A3023 RMK A01 T00911098  RH  025%=      5-min Rain = 0
KOES 130240Z 15004KT 09/M10 A3024 RMK A01 T00901098  RH  025%=      5-min Rain = 0
KOES 130245Z 16004KT 09/M10 A3024 RMK A01 T00901098  RH  025%=      5-min Rain = 0
KOES 130250Z 16004KT 09/M10 A3024 RMK A01 T00911098  RH  025%=      5-min Rain = 0
KOES 130255Z 16004KT 09/M10 A3024 RMK A01 T00921097  RH  025%=      5-min Rain = 0
KOES 130300Z 15004KT 09/M10 A3024 RMK A01 T00911097  RH  025%=      5-min Rain = 0
KOES 130305Z 16005KT 09/M10 A3024 RMK A01 T00891097  RH  026%=      5-min Rain = 0
KOES 130310Z 15004KT 09/M10 A3024 RMK A01 T00891097  RH  026%=      5-min Rain = 0
KOES 130315Z 14004KT 09/M10 A3024 RMK A01 T00881097  RH  026%=      5-min Rain = 0
KOES 130320Z 14004KT 09/M10 A3024 RMK A01 T00861097  RH  026%=      5-min Rain = 0
KOES 130325Z 14005KT 08/M10 A3024 RMK A01 T00831099  RH  026%=      5-min Rain = 0
KOES 130330Z 14005KT 08/M10 A3024 RMK A01 T00821100  RH  026%=      5-min Rain = 0
KOES 130335Z 14005KT 08/M10 A3024 RMK A01 T00801102  RH  026%=      5-min Rain = 0
KOES 130340Z 14005KT 08/M10 A3024 RMK A01 T00771102  RH  027%=      5-min Rain = 0
KOES 130345Z 14005KT 08/M10 A3024 RMK A01 T00771101  RH  027%=      5-min Rain = 0
KOES 130350Z 14005KT 08/M10 A3024 RMK A01 T00771099  RH  027%=      5-min Rain = 0
KOES 130355Z 14005KT 08/M10 A3024 RMK A01 T00771099  RH  027%=      5-min Rain = 0
KOES 130400Z 14004KT 08/M10 A3024 RMK A01 T00761099  RH  027%=      5-min Rain = 0
KOES 130405Z 14005KT 07/M10 A3024 RMK A01 T00741099  RH  028%=      5-min Rain = 0
KOES 130410Z 14005KT 07/M10 A3024 RMK A01 T00731099  RH  028%=      5-min Rain = 0
KOES 130415Z 14006KT 07/M10 A3024 RMK A01 T00741096  RH  028%=      5-min Rain = 0
KOES 130420Z 14006KT 08/M10 A3024 RMK A01 T00751095  RH  029%=      5-min Rain = 0
KOES 130425Z 14007KT 08/M09 A3024 RMK A01 T00761093  RH  029%=      5-min Rain = 0
KOES 130430Z 14008KT 08/M09 A3024 RMK A01 T00771091  RH  029%=      5-min Rain = 0
KOES 130435Z 14007KT 08/M09 A3024 RMK A01 T00771090  RH  029%=      5-min Rain = 0
KOES 130440Z 14006KT 07/M09 A3024 RMK A01 T00741091  RH  030%=      5-min Rain = 0
KOES 130445Z 14006KT 07/M09 A3024 RMK A01 T00721093  RH  030%=      5-min Rain = 0
KOES 130450Z 14007KT 07/M10 A3024 RMK A01 T00671097  RH  030%=      5-min Rain = 0
KOES 130455Z 14006KT 06/M10 A3024 RMK A01 T00621099  RH  030%=      5-min Rain = 0

Page generated in 0.0092 seconds.